createdAt,value
2022-09-28T00:02:10.538Z,82.91
2022-09-28T00:04:37.193Z,82.64
2022-09-28T00:07:03.739Z,83.23
2022-09-28T00:09:30.232Z,83.16
2022-09-28T00:11:57.744Z,82.69
2022-09-28T00:14:24.540Z,83.20
2022-09-28T00:16:51.269Z,83.27
2022-09-28T00:19:18.319Z,83.09
2022-09-28T00:21:44.919Z,82.84
2022-09-28T00:24:15.205Z,83.06
2022-09-28T00:26:56.597Z,82.76
2022-09-28T00:29:30.021Z,83.03
2022-09-28T00:32:03.093Z,82.99
2022-09-28T00:34:36.143Z,83.08
2022-09-28T00:37:04.758Z,83.10
2022-09-28T00:39:31.826Z,82.84
2022-09-28T00:41:59.079Z,83.05
2022-09-28T00:44:25.533Z,83.12
2022-09-28T00:47:14.272Z,83.22
2022-09-28T00:49:49.830Z,82.98
2022-09-28T00:52:26.534Z,83.14
2022-09-28T00:54:55.528Z,82.72
2022-09-28T00:57:23.148Z,82.89
2022-09-28T00:59:51.258Z,83.24
2022-09-28T01:02:18.565Z,83.33
2022-09-28T01:04:45.343Z,82.88
2022-09-28T01:07:12.610Z,83.04
2022-09-28T01:09:40.784Z,83.14
2022-09-28T01:12:07.990Z,83.56
2022-09-28T01:14:34.812Z,83.65
2022-09-28T01:17:38.524Z,83.77
2022-09-28T01:20:32.643Z,83.79
2022-09-28T01:23:12.622Z,83.51
2022-09-28T01:25:58.744Z,83.36
2022-09-28T01:28:29.144Z,83.41
2022-09-28T01:31:12.601Z,84.02
2022-09-28T01:33:44.796Z,83.90
2022-09-28T01:36:25.549Z,83.81
2022-09-28T01:39:07.802Z,83.68
2022-09-28T01:41:36.789Z,83.96
2022-09-28T01:44:05.954Z,83.57
2022-09-28T01:46:38.247Z,83.98
2022-09-28T01:49:16.264Z,83.38
2022-09-28T01:52:01.222Z,84.17
2022-09-28T01:54:42.918Z,83.52
2022-09-28T01:57:17.602Z,83.81
2022-09-28T01:59:50.909Z,83.41
2022-09-28T02:02:22.921Z,83.47
2022-09-28T02:04:56.276Z,84.01
2022-09-28T02:07:34.989Z,83.10
2022-09-28T02:10:09.663Z,83.03
2022-09-28T02:12:38.835Z,83.10
2022-09-28T02:15:20.595Z,82.80
2022-09-28T02:17:47.729Z,83.32
2022-09-28T02:20:15.089Z,83.05
2022-09-28T02:22:49.795Z,82.88
2022-09-28T02:25:31.091Z,83.30
2022-09-28T02:28:04.327Z,82.23
2022-09-28T02:30:32.394Z,82.78
2022-09-28T02:33:21.819Z,82.64
2022-09-28T02:35:48.840Z,82.68
2022-09-28T02:38:15.799Z,82.88
2022-09-28T02:40:45.766Z,82.73
2022-09-28T02:43:28.608Z,82.98
2022-09-28T02:46:20.073Z,82.25
2022-09-28T02:49:22.328Z,82.67
2022-09-28T02:52:10.646Z,82.41
2022-09-28T02:54:37.143Z,82.52
2022-09-28T02:57:27.763Z,82.18
2022-09-28T03:00:21.305Z,82.04
2022-09-28T03:02:52.326Z,82.04
2022-09-28T03:05:37.451Z,82.01
2022-09-28T03:08:12.352Z,81.94
2022-09-28T03:10:52.910Z,81.94
2022-09-28T03:13:20.283Z,82.09
2022-09-28T03:15:49.010Z,81.66
2022-09-28T03:18:16.297Z,82.54
2022-09-28T03:20:42.939Z,82.62
2022-09-28T03:23:25.550Z,81.92
2022-09-28T03:25:52.349Z,81.96
2022-09-28T03:28:19.296Z,81.71
2022-09-28T03:30:45.777Z,81.91
2022-09-28T03:33:12.320Z,82.11
2022-09-28T03:35:38.878Z,82.18
2022-09-28T03:38:05.401Z,81.76
2022-09-28T03:40:32.108Z,81.76
2022-09-28T03:43:00.431Z,82.42
2022-09-28T03:45:26.968Z,82.19
2022-09-28T03:47:53.704Z,81.89
2022-09-28T03:50:20.211Z,81.91
2022-09-28T03:52:46.714Z,81.92
2022-09-28T03:55:13.701Z,81.92
2022-09-28T03:57:40.202Z,81.97
2022-09-28T04:00:07.280Z,82.69
2022-09-28T04:02:34.737Z,82.05
2022-09-28T04:05:01.703Z,82.39
2022-09-28T04:07:31.042Z,82.07
2022-09-28T04:09:57.891Z,81.84
2022-09-28T04:12:24.400Z,82.02
2022-09-28T04:14:50.991Z,81.74
2022-09-28T04:17:17.501Z,81.57
2022-09-28T04:19:44.120Z,81.58
2022-09-28T04:22:10.629Z,81.68
2022-09-28T04:24:37.181Z,81.31
2022-09-28T04:27:22.754Z,80.99
2022-09-28T04:29:49.225Z,81.08
2022-09-28T04:32:15.800Z,81.23
2022-09-28T04:34:44.362Z,81.12
2022-09-28T04:37:11.358Z,81.17
2022-09-28T04:39:37.970Z,81.14
2022-09-28T04:42:04.758Z,81.51
2022-09-28T04:44:31.318Z,81.75
2022-09-28T04:47:00.679Z,81.69
2022-09-28T04:49:30.986Z,81.39
2022-09-28T04:51:57.467Z,81.82
2022-09-28T04:54:24.006Z,81.80
2022-09-28T04:56:51.340Z,82.54
2022-09-28T04:59:17.887Z,81.67
2022-09-28T05:01:44.678Z,80.09
2022-09-28T05:04:11.255Z,79.66
2022-09-28T05:06:37.910Z,79.28
2022-09-28T05:09:04.451Z,78.46
2022-09-28T05:11:31.062Z,78.25
2022-09-28T05:13:57.966Z,77.53
2022-09-28T05:16:26.217Z,78.00
2022-09-28T05:18:57.035Z,76.40
2022-09-28T05:21:25.582Z,76.51
2022-09-28T05:23:52.617Z,76.21
2022-09-28T05:26:19.277Z,76.68
2022-09-28T05:28:45.835Z,75.45
2022-09-28T05:31:12.414Z,74.90
2022-09-28T05:33:39.013Z,75.70
2022-09-28T05:36:11.132Z,75.92
2022-09-28T05:38:37.615Z,76.25
2022-09-28T05:41:06.746Z,75.51
2022-09-28T05:43:33.629Z,75.52
2022-09-28T05:46:00.642Z,75.37
2022-09-28T05:48:28.346Z,75.20
2022-09-28T05:50:55.477Z,76.13
2022-09-28T05:53:22.256Z,74.83
2022-09-28T05:55:48.981Z,74.07
2022-09-28T05:58:16.385Z,73.97
2022-09-28T06:00:43.726Z,73.55
2022-09-28T06:03:14.536Z,74.08
2022-09-28T06:05:41.406Z,73.16
2022-09-28T06:08:10.787Z,72.91
2022-09-28T06:10:38.226Z,72.33
2022-09-28T06:13:05.441Z,73.09
2022-09-28T06:15:34.284Z,72.50
2022-09-28T06:18:10.809Z,73.43
2022-09-28T06:20:42.564Z,72.62
2022-09-28T06:23:13.222Z,73.02
2022-09-28T06:25:40.280Z,72.91
2022-09-28T06:28:10.901Z,73.32
2022-09-28T06:30:40.459Z,72.15
2022-09-28T06:33:09.981Z,71.42
2022-09-28T06:35:36.728Z,71.39
2022-09-28T06:38:03.623Z,70.68
2022-09-28T06:40:30.626Z,70.99
2022-09-28T06:42:58.047Z,70.75
2022-09-28T06:45:25.897Z,71.38
2022-09-28T06:47:54.229Z,72.50
2022-09-28T06:50:20.748Z,72.96
2022-09-28T06:52:50.401Z,73.38
2022-09-28T06:55:17.129Z,72.65
2022-09-28T06:57:43.688Z,71.66
2022-09-28T07:00:10.797Z,72.35
2022-09-28T07:02:37.475Z,72.46
2022-09-28T07:05:04.274Z,72.41
2022-09-28T07:07:31.357Z,72.33
2022-09-28T07:09:57.894Z,72.15
2022-09-28T07:12:25.235Z,72.63
2022-09-28T07:14:56.330Z,72.92
2022-09-28T07:17:24.135Z,72.16
2022-09-28T07:19:52.710Z,71.55
2022-09-28T07:22:27.730Z,71.84
2022-09-28T07:25:01.235Z,71.50
2022-09-28T07:27:29.119Z,72.23
2022-09-28T07:29:55.729Z,71.96
2022-09-28T07:32:22.452Z,72.33
2022-09-28T07:34:49.503Z,72.74
2022-09-28T07:37:18.915Z,72.50
2022-09-28T07:40:15.584Z,72.39
2022-09-28T07:42:42.568Z,72.81
2022-09-28T07:45:09.504Z,72.66
2022-09-28T07:47:36.019Z,72.67
2022-09-28T07:50:02.593Z,72.07
2022-09-28T07:52:29.347Z,70.26
2022-09-28T07:54:55.941Z,70.33
2022-09-28T07:57:23.315Z,70.55
2022-09-28T07:59:50.866Z,70.43
2022-09-28T08:02:20.498Z,69.53
2022-09-28T08:04:48.318Z,69.62
2022-09-28T08:07:24.258Z,70.03
2022-09-28T08:09:51.145Z,70.29
2022-09-28T08:12:19.676Z,69.66
2022-09-28T08:14:47.073Z,69.28
2022-09-28T08:17:13.786Z,69.26
2022-09-28T08:19:58.670Z,68.58
2022-09-28T08:22:25.238Z,69.25
2022-09-28T08:24:51.880Z,68.73
2022-09-28T08:27:18.448Z,67.08
2022-09-28T08:29:45.033Z,66.57
2022-09-28T08:32:12.693Z,66.16
2022-09-28T08:34:40.790Z,66.71
2022-09-28T08:37:09.400Z,66.21
2022-09-28T08:39:36.768Z,64.51
2022-09-28T08:42:17.482Z,64.11
2022-09-28T08:44:55.778Z,63.74
2022-09-28T08:47:46.771Z,65.41
2022-09-28T08:50:18.878Z,65.21
2022-09-28T08:52:48.068Z,64.00
2022-09-28T08:55:36.889Z,63.78
2022-09-28T08:58:10.872Z,65.34
2022-09-28T09:00:55.615Z,66.02
2022-09-28T09:03:31.604Z,65.08
2022-09-28T09:06:27.600Z,65.17
2022-09-28T09:09:20.397Z,63.24
2022-09-28T09:12:04.907Z,64.85
2022-09-28T09:15:06.755Z,62.81
2022-09-28T09:17:33.225Z,62.14
2022-09-28T09:20:15.160Z,63.32
2022-09-28T09:23:00.448Z,63.63
2022-09-28T09:25:46.625Z,63.33
2022-09-28T09:28:35.303Z,62.38
2022-09-28T09:31:22.908Z,61.95
2022-09-28T09:34:12.436Z,62.28
2022-09-28T09:36:54.275Z,61.87
2022-09-28T09:39:32.309Z,59.82
2022-09-28T09:42:32.226Z,59.80
2022-09-28T09:45:36.504Z,60.07
2022-09-28T09:48:10.269Z,59.14
2022-09-28T09:50:49.389Z,59.00
2022-09-28T09:53:38.989Z,58.97
2022-09-28T09:56:13.851Z,61.07
2022-09-28T09:58:51.355Z,59.61
2022-09-28T10:01:22.816Z,59.36
2022-09-28T10:03:51.077Z,57.54
2022-09-28T10:06:25.378Z,56.57
2022-09-28T10:09:05.292Z,56.47
2022-09-28T10:11:37.665Z,56.56
2022-09-28T10:14:05.775Z,56.51
2022-09-28T10:16:36.028Z,55.86
2022-09-28T10:19:02.678Z,55.66
2022-09-28T10:21:30.070Z,56.43
2022-09-28T10:24:02.821Z,55.99
2022-09-28T10:26:37.600Z,57.69
2022-09-28T10:29:13.302Z,56.97
2022-09-28T10:31:39.795Z,55.16
2022-09-28T10:34:08.767Z,54.61
2022-09-28T10:36:47.498Z,55.53
2022-09-28T10:39:45.877Z,54.14
2022-09-28T10:42:19.534Z,53.28
2022-09-28T10:44:51.857Z,54.90
2022-09-28T10:47:22.126Z,56.00
2022-09-28T10:49:51.904Z,56.80
2022-09-28T10:52:34.941Z,56.79
2022-09-28T10:55:02.601Z,57.18
2022-09-28T10:57:35.052Z,57.71
2022-09-28T11:00:02.649Z,58.33
2022-09-28T11:02:35.921Z,57.24
2022-09-28T11:05:06.594Z,55.97
2022-09-28T11:07:44.381Z,54.45
2022-09-28T11:10:21.481Z,54.07
2022-09-28T11:12:49.836Z,53.66
2022-09-28T11:15:33.047Z,54.08
2022-09-28T11:18:22.286Z,52.42
2022-09-28T11:20:49.568Z,52.92
2022-09-28T11:23:30.086Z,54.22
2022-09-28T11:26:02.563Z,54.09
2022-09-28T11:28:33.265Z,55.33
2022-09-28T11:31:01.468Z,55.45
2022-09-28T11:33:30.896Z,55.94
2022-09-28T11:36:18.781Z,56.33
2022-09-28T11:39:33.428Z,54.07
2022-09-28T11:42:06.086Z,53.36
2022-09-28T11:44:49.295Z,51.95
2022-09-28T11:47:53.211Z,50.90
2022-09-28T11:50:26.542Z,50.02
2022-09-28T11:53:00.399Z,50.53
2022-09-28T11:55:47.127Z,51.20
2022-09-28T11:58:29.571Z,51.96
2022-09-28T12:01:02.177Z,51.99
2022-09-28T12:03:48.468Z,53.16
2022-09-28T12:06:20.536Z,53.19
2022-09-28T12:08:53.600Z,53.96
2022-09-28T12:11:36.761Z,53.97
2022-09-28T12:14:10.057Z,53.65
2022-09-28T12:17:04.898Z,51.94
2022-09-28T12:19:37.760Z,50.87
2022-09-28T12:22:16.037Z,52.13
2022-09-28T12:24:46.439Z,52.34
2022-09-28T12:27:38.662Z,50.52
2022-09-28T12:30:20.334Z,49.95
2022-09-28T12:33:04.640Z,50.10
2022-09-28T12:35:59.164Z,51.29
2022-09-28T12:38:28.623Z,51.32
2022-09-28T12:41:18.686Z,51.49
2022-09-28T12:43:45.156Z,52.18
2022-09-28T12:46:42.387Z,52.34
2022-09-28T12:50:36.310Z,52.68
2022-09-28T12:52:48.981Z,52.06
2022-09-28T12:55:24.342Z,51.15
2022-09-28T12:58:23.933Z,50.58
2022-09-28T13:01:08.827Z,48.71
2022-09-28T13:04:04.556Z,48.59
2022-09-28T13:06:41.251Z,48.96
2022-09-28T13:09:21.876Z,47.75
2022-09-28T13:11:55.473Z,47.63
2022-09-28T13:14:34.243Z,47.48
2022-09-28T13:17:25.828Z,48.18
2022-09-28T13:20:04.785Z,47.59
2022-09-28T13:22:44.403Z,46.86
2022-09-28T13:25:18.192Z,46.93
2022-09-28T13:28:05.788Z,46.87
2022-09-28T13:30:36.055Z,45.32
2022-09-28T13:33:05.271Z,44.11
2022-09-28T13:35:33.352Z,43.58
2022-09-28T13:38:18.069Z,43.43
2022-09-28T13:41:03.476Z,41.10
2022-09-28T13:43:35.629Z,40.84
2022-09-28T13:46:20.397Z,40.41
2022-09-28T13:48:54.895Z,39.51
2022-09-28T13:51:43.479Z,38.90
2022-09-28T13:54:20.806Z,37.83
2022-09-28T13:57:17.162Z,36.71
2022-09-28T14:00:06.181Z,35.49
2022-09-28T14:02:42.290Z,35.40
2022-09-28T14:05:25.153Z,33.61
2022-09-28T14:08:29.990Z,33.13
2022-09-28T14:11:24.636Z,33.21
2022-09-28T14:14:13.963Z,31.87
2022-09-28T14:16:42.134Z,31.31
2022-09-28T14:19:28.628Z,33.40
2022-09-28T14:22:14.906Z,32.66
2022-09-28T14:24:59.647Z,33.11
2022-09-28T14:27:57.618Z,33.42
2022-09-28T14:30:27.584Z,32.30
2022-09-28T14:32:57.929Z,33.70
2022-09-28T14:35:32.980Z,34.85
2022-09-28T14:38:24.337Z,36.05
2022-09-28T14:41:13.687Z,36.18
2022-09-28T14:43:46.139Z,35.64
2022-09-28T14:46:15.834Z,35.61
2022-09-28T14:48:48.247Z,36.23
2022-09-28T14:51:26.909Z,36.41
2022-09-28T14:53:55.383Z,36.35
2022-09-28T14:56:22.332Z,36.80
2022-09-28T14:58:54.635Z,37.94
2022-09-28T15:01:24.717Z,37.83
2022-09-28T15:04:01.850Z,37.29
2022-09-28T15:06:45.398Z,37.37
2022-09-28T15:09:28.025Z,34.94
2022-09-28T15:12:16.300Z,34.17
2022-09-28T15:14:47.738Z,35.26
2022-09-28T15:17:21.370Z,33.74
2022-09-28T15:20:30.028Z,31.90
2022-09-28T15:22:58.925Z,32.05
2022-09-28T15:25:31.804Z,31.30
2022-09-28T15:28:04.581Z,30.28
2022-09-28T15:30:34.264Z,31.55
2022-09-28T15:33:21.474Z,30.58
2022-09-28T15:35:59.367Z,32.69
2022-09-28T15:38:26.138Z,33.23
2022-09-28T15:40:52.927Z,34.78
2022-09-28T15:43:27.088Z,36.20
2022-09-28T15:46:13.303Z,37.51
2022-09-28T15:48:45.956Z,38.79
2022-09-28T15:51:12.700Z,39.78
2022-09-28T15:53:53.398Z,40.05
2022-09-28T15:56:19.924Z,40.99
2022-09-28T15:59:09.845Z,41.70
2022-09-28T16:01:42.494Z,42.31
2022-09-28T16:04:38.555Z,43.09
2022-09-28T16:07:38.182Z,43.25
2022-09-28T16:10:13.655Z,44.13
2022-09-28T16:12:40.157Z,44.00
2022-09-28T16:15:23.503Z,44.89
2022-09-28T16:17:56.671Z,44.86
2022-09-28T16:20:27.712Z,44.67
2022-09-28T16:22:55.267Z,45.62
2022-09-28T16:25:25.053Z,45.39
2022-09-28T16:27:53.917Z,46.09
2022-09-28T16:30:24.200Z,46.43
2022-09-28T16:33:03.567Z,47.03
2022-09-28T16:35:42.098Z,47.95
2022-09-28T16:38:14.477Z,48.62
2022-09-28T16:40:43.435Z,49.09
2022-09-28T16:43:26.984Z,48.94
2022-09-28T16:45:59.332Z,50.17
2022-09-28T16:48:28.534Z,50.54
2022-09-28T16:50:56.130Z,51.54
2022-09-28T16:53:41.417Z,52.53
2022-09-28T16:56:08.513Z,52.01
2022-09-28T16:58:36.609Z,52.44
2022-09-28T17:01:03.477Z,53.43
2022-09-28T17:03:30.259Z,53.69
2022-09-28T17:05:57.155Z,53.01
2022-09-28T17:08:25.017Z,54.47
2022-09-28T17:11:23.393Z,54.44
2022-09-28T17:13:48.761Z,54.78
2022-09-28T17:16:57.326Z,54.79
2022-09-28T17:19:19.748Z,55.38
2022-09-28T17:21:46.744Z,54.93
2022-09-28T17:24:13.310Z,56.29
2022-09-28T17:26:43.904Z,56.91
2022-09-28T17:29:14.917Z,57.63
2022-09-28T17:31:42.901Z,57.34
2022-09-28T17:34:11.005Z,58.02
2022-09-28T17:36:37.873Z,58.42
2022-09-28T17:39:06.418Z,58.67
2022-09-28T17:41:34.254Z,59.36
2022-09-28T17:44:03.090Z,58.69
2022-09-28T17:46:29.713Z,57.61
2022-09-28T17:48:59.547Z,58.25
2022-09-28T17:51:31.084Z,59.10
2022-09-28T17:53:58.659Z,59.76
2022-09-28T17:56:29.705Z,59.77
2022-09-28T17:59:04.992Z,59.61
2022-09-28T18:01:35.913Z,60.88
2022-09-28T18:04:05.040Z,60.63
2022-09-28T18:06:33.544Z,60.00
2022-09-28T18:09:00.583Z,60.66
2022-09-28T18:11:28.105Z,61.00
2022-09-28T18:13:54.645Z,60.77
2022-09-28T18:16:22.715Z,61.36
2022-09-28T18:18:49.289Z,61.23
2022-09-28T18:21:15.868Z,61.63
2022-09-28T18:23:42.441Z,62.56
2022-09-28T18:26:14.479Z,62.26
2022-09-28T18:28:41.282Z,61.77
2022-09-28T18:31:09.562Z,62.48
2022-09-28T18:33:36.883Z,63.35
2022-09-28T18:36:04.828Z,63.64
2022-09-28T18:38:31.356Z,63.84
2022-09-28T18:40:57.964Z,64.20
2022-09-28T18:43:24.514Z,63.57
2022-09-28T18:45:51.127Z,63.80
2022-09-28T18:48:17.676Z,64.14
2022-09-28T18:50:44.185Z,64.05
2022-09-28T18:53:13.486Z,64.23
2022-09-28T18:55:44.465Z,64.93
2022-09-28T18:58:12.333Z,64.59
2022-09-28T19:00:41.375Z,64.07
2022-09-28T19:03:10.919Z,64.77
2022-09-28T19:05:42.416Z,64.09
2022-09-28T19:08:09.976Z,64.36
2022-09-28T19:10:36.621Z,65.65
2022-09-28T19:13:03.306Z,65.54
2022-09-28T19:15:29.977Z,65.66
2022-09-28T19:17:57.134Z,66.15
2022-09-28T19:20:23.782Z,66.29
2022-09-28T19:22:51.377Z,65.85
2022-09-28T19:25:18.092Z,66.14
2022-09-28T19:27:44.701Z,66.82
2022-09-28T19:30:11.802Z,67.08
2022-09-28T19:32:38.945Z,68.01
2022-09-28T19:35:05.581Z,67.86
2022-09-28T19:37:36.586Z,68.28
2022-09-28T19:40:05.874Z,68.32
2022-09-28T19:42:32.832Z,68.82
2022-09-28T19:44:59.343Z,68.80
2022-09-28T19:47:25.970Z,69.52
2022-09-28T19:49:52.537Z,69.62
2022-09-28T19:52:19.120Z,69.18
2022-09-28T19:54:56.602Z,69.87
2022-09-28T19:57:25.948Z,69.95
2022-09-28T19:59:54.958Z,70.52
2022-09-28T20:02:23.577Z,70.56
2022-09-28T20:04:50.305Z,71.34
2022-09-28T20:07:17.068Z,71.51
2022-09-28T20:09:43.665Z,71.50
2022-09-28T20:12:10.202Z,71.20
2022-09-28T20:14:40.123Z,71.95
2022-09-28T20:17:07.703Z,72.22
2022-09-28T20:19:35.029Z,72.32
2022-09-28T20:22:03.005Z,72.48
2022-09-28T20:24:31.241Z,72.55
2022-09-28T20:26:58.352Z,72.89
2022-09-28T20:29:25.212Z,72.82
2022-09-28T20:31:52.103Z,73.08
2022-09-28T20:34:18.868Z,73.21
2022-09-28T20:36:45.399Z,73.10
2022-09-28T20:39:12.856Z,73.20
2022-09-28T20:41:39.959Z,73.32
2022-09-28T20:44:06.900Z,73.54
2022-09-28T20:46:37.096Z,73.66
2022-09-28T20:49:05.470Z,73.53
2022-09-28T20:51:32.336Z,73.98
2022-09-28T20:53:59.421Z,74.18
2022-09-28T20:56:28.962Z,74.29
2022-09-28T20:58:55.565Z,74.32
2022-09-28T21:01:27.577Z,74.26
2022-09-28T21:03:55.009Z,74.10
2022-09-28T21:06:24.442Z,74.38
2022-09-28T21:08:51.262Z,74.57
2022-09-28T21:11:20.707Z,74.74
2022-09-28T21:13:48.015Z,74.77
2022-09-28T21:16:16.460Z,74.66
2022-09-28T21:18:43.388Z,74.83
2022-09-28T21:21:13.225Z,75.17
2022-09-28T21:23:40.230Z,75.23
2022-09-28T21:26:09.755Z,75.22
2022-09-28T21:28:37.874Z,75.14
2022-09-28T21:31:06.537Z,75.23
2022-09-28T21:33:33.572Z,75.29
2022-09-28T21:36:06.308Z,75.59
2022-09-28T21:38:33.438Z,75.46
2022-09-28T21:41:00.554Z,76.02
2022-09-28T21:43:28.963Z,75.70
2022-09-28T21:45:56.609Z,75.80
2022-09-28T21:48:25.089Z,75.72
2022-09-28T21:50:59.397Z,75.73
2022-09-28T21:53:29.093Z,76.35
2022-09-28T21:55:56.807Z,75.88
2022-09-28T21:58:25.262Z,75.98
2022-09-28T22:00:58.247Z,76.49
2022-09-28T22:03:25.932Z,76.21
2022-09-28T22:05:52.549Z,76.31
2022-09-28T22:08:20.033Z,76.42
2022-09-28T22:10:57.312Z,76.28
2022-09-28T22:13:23.820Z,75.94
2022-09-28T22:15:54.383Z,76.31
2022-09-28T22:18:21.024Z,75.93
2022-09-28T22:20:47.536Z,75.97
2022-09-28T22:23:14.072Z,76.09
2022-09-28T22:25:40.609Z,76.07
2022-09-28T22:28:07.136Z,75.83
2022-09-28T22:30:34.718Z,75.91
2022-09-28T22:33:02.457Z,75.47
2022-09-28T22:35:29.055Z,75.80
2022-09-28T22:37:55.650Z,75.50
2022-09-28T22:40:22.736Z,75.43
2022-09-28T22:42:49.697Z,75.43
2022-09-28T22:45:16.218Z,75.23
2022-09-28T22:47:42.737Z,75.28
2022-09-28T22:50:09.439Z,75.59
2022-09-28T22:52:35.912Z,75.71
2022-09-28T22:55:02.394Z,75.43
2022-09-28T22:57:29.467Z,75.21
2022-09-28T22:59:55.983Z,74.88
2022-09-28T23:02:22.735Z,75.30
2022-09-28T23:04:49.646Z,75.24
2022-09-28T23:07:18.436Z,75.04
2022-09-28T23:09:44.955Z,75.25
2022-09-28T23:12:11.482Z,75.45
2022-09-28T23:14:38.059Z,75.12
2022-09-28T23:17:04.578Z,75.05
2022-09-28T23:19:31.206Z,74.95
2022-09-28T23:21:59.261Z,75.16
2022-09-28T23:24:25.871Z,74.87
2022-09-28T23:26:54.730Z,74.85
2022-09-28T23:29:21.266Z,75.51
2022-09-28T23:31:47.809Z,75.97
2022-09-28T23:34:14.443Z,75.81
2022-09-28T23:36:40.910Z,75.36
2022-09-28T23:39:07.531Z,75.19
2022-09-28T23:41:34.056Z,75.07
2022-09-28T23:44:00.746Z,74.91
2022-09-28T23:46:27.462Z,75.07
2022-09-28T23:48:54.163Z,75.22
2022-09-28T23:51:20.804Z,74.75
2022-09-28T23:53:47.490Z,74.76
2022-09-28T23:56:14.630Z,74.99
2022-09-28T23:58:41.305Z,74.81
